Time;durP1;ratioP1;P1;durP2;ratioP2;P2;SDS_P1;SDS_P2;PMS_P1;PMS_P2;Temp;Humidity;BMP_temperature;BMP_pressure;BME280_temperature;BME280_humidity;BME280_pressure;Samples;Min_cycle;Max_cycle;Signal;HPM_P1;HPM_P2
2023/07/15 00:01:06;;;;;;;7.67;2.00;;;;;;;21.21;62.15;100734.06;5047798;28;20500;-72
2023/07/15 00:03:34;;;;;;;4.40;0.90;;;;;;;21.26;61.87;100724.66;5041174;28;20458;-70
2023/07/15 00:06:01;;;;;;;5.93;1.67;;;;;;;21.29;61.59;100721.16;5056247;28;20448;-70
2023/07/15 00:08:30;;;;;;;5.27;1.60;;;;;;;21.31;61.33;100719.66;5053291;28;20462;-69
2023/07/15 00:10:57;;;;;;;5.40;1.50;;;;;;;21.33;61.23;100713.78;5056277;28;20450;-70
2023/07/15 00:13:23;;;;;;;4.40;1.20;;;;;;;21.38;61.21;100717.03;5056158;28;20472;-71
2023/07/15 00:15:53;;;;;;;5.03;1.33;;;;;;;21.38;60.99;100710.69;5055124;28;20573;-71
2023/07/15 00:18:21;;;;;;;5.37;1.50;;;;;;;21.39;60.39;100710.34;5042565;28;20949;-69
2023/07/15 00:20:49;;;;;;;4.97;1.60;;;;;;;21.40;61.05;100709.16;5051199;28;20464;-70
2023/07/15 00:23:20;;;;;;;5.20;1.63;;;;;;;21.45;61.02;100696.22;5053734;28;20454;-71
2023/07/15 00:25:48;;;;;;;6.60;2.50;;;;;;;21.40;61.76;100689.88;5035998;28;20470;-70
2023/07/15 00:28:15;;;;;;;6.37;2.10;;;;;;;21.42;60.49;100681.22;5036116;28;20443;-72
2023/07/15 00:30:42;;;;;;;5.70;1.50;;;;;;;21.41;62.24;100682.41;5050985;28;20470;-71
2023/07/15 00:33:14;;;;;;;5.50;1.87;;;;;;;21.47;60.65;100680.09;5053285;28;20494;-71
2023/07/15 00:35:43;;;;;;;5.53;1.87;;;;;;;21.54;60.27;100680.22;5055701;28;20472;-70
2023/07/15 00:38:11;;;;;;;6.23;1.87;;;;;;;21.57;60.46;100677.50;5054723;28;20464;-70
2023/07/15 00:40:40;;;;;;;6.07;1.80;;;;;;;21.58;61.32;100675.56;5054467;28;20460;-70
2023/07/15 00:43:44;;;;;;;5.13;1.73;;;;;;;21.50;62.33;100677.41;5054415;28;20462;-70
2023/07/15 00:46:44;;;;;;;7.37;2.17;;;;;;;21.47;61.84;100677.34;5055080;28;20531;-70
2023/07/15 00:49:16;;;;;;;6.20;1.83;;;;;;;21.49;60.49;100677.78;5045389;28;20472;-71
2023/07/15 00:51:46;;;;;;;5.40;1.60;;;;;;;21.52;60.23;100682.56;5053844;28;20458;-72
2023/07/15 00:54:14;;;;;;;5.10;1.60;;;;;;;21.48;61.27;100673.44;5054149;28;20457;-70
2023/07/15 00:56:42;;;;;;;5.30;1.33;;;;;;;21.46;61.53;100673.81;5053359;28;20617;-71
2023/07/15 00:59:11;;;;;;;5.87;1.77;;;;;;;21.39;62.47;100671.75;5053685;28;20462;-73
2023/07/15 01:01:37;;;;;;;5.60;1.70;;;;;;;21.36;62.82;100672.50;5053410;28;20490;-70
2023/07/15 01:04:06;;;;;;;5.23;1.50;;;;;;;21.34;61.95;100668.53;5053911;28;20458;-71
2023/07/15 01:06:35;;;;;;;5.53;1.93;;;;;;;;;;5053765;28;20532;-70
2023/07/15 01:09:04;;;;;;;5.27;1.60;;;;;;;;;;5054713;28;20450;-71
2023/07/15 01:11:31;;;;;;;6.00;1.80;;;;;;;21.24;62.66;100664.41;5054043;28;20535;-70
2023/07/15 01:13:57;;;;;;;6.20;1.80;;;;;;;21.23;63.01;100664.78;5053917;28;20470;-70
2023/07/15 01:16:24;;;;;;;5.50;2.00;;;;;;;21.22;63.99;100657.69;5054731;28;20537;-70
2023/07/15 01:18:51;;;;;;;5.90;1.50;;;;;;;21.20;64.20;100660.00;5054465;28;20449;-70
2023/07/15 01:21:20;;;;;;;6.77;1.60;;;;;;;21.14;64.07;100659.53;5051605;28;20485;-70
2023/07/15 01:23:48;;;;;;;5.60;1.47;;;;;;;21.10;64.32;100651.22;5052916;28;20458;-70
2023/07/15 01:26:15;;;;;;;5.20;1.90;;;;;;;21.08;65.01;100650.81;5054539;28;20454;-70
2023/07/15 01:28:41;;;;;;;5.90;1.83;;;;;;;21.07;64.87;100643.72;5053501;28;20540;-71
2023/07/15 01:31:08;;;;;;;4.80;1.30;;;;;;;21.04;65.26;100640.91;5051799;28;20959;-68
2023/07/15 01:33:35;;;;;;;6.00;2.10;;;;;;;21.01;66.38;100630.63;5054762;28;20521;-69
2023/07/15 01:36:02;;;;;;;5.30;1.70;;;;;;;20.99;66.77;100627.47;5053245;28;20923;-68
2023/07/15 01:38:29;;;;;;;4.90;1.50;;;;;;;20.92;67.21;100628.91;5053584;28;20993;-70
2023/07/15 01:40:57;;;;;;;5.03;1.53;;;;;;;20.90;66.64;100625.75;5054236;28;20533;-69
2023/07/15 01:43:24;;;;;;;4.90;1.50;;;;;;;20.85;66.81;100625.25;5054119;28;21018;-71
2023/07/15 01:45:52;;;;;;;6.27;1.90;;;;;;;20.82;67.42;100624.06;5052756;28;20466;-69
2023/07/15 01:48:19;;;;;;;6.13;1.83;;;;;;;20.79;67.54;100624.78;5053137;28;20439;-70
2023/07/15 01:50:46;;;;;;;6.20;1.63;;;;;;;20.76;67.54;100624.72;5051668;28;20480;-69
2023/07/15 01:53:14;;;;;;;5.10;1.60;;;;;;;20.73;68.20;100611.72;5053933;28;20799;-68
2023/07/15 01:55:41;;;;;;;5.17;1.57;;;;;;;20.70;67.81;100620.69;5053125;28;20490;-67
2023/07/15 01:58:09;;;;;;;7.13;1.67;;;;;;;20.68;68.19;100612.81;5052797;28;21058;-66
2023/07/15 02:00:36;;;;;;;5.90;1.90;;;;;;;20.65;68.14;100613.53;5054108;28;20534;-71
2023/07/15 02:03:03;;;;;;;5.47;1.70;;;;;;;20.62;69.25;100609.56;5044418;28;20459;-70
2023/07/15 02:05:30;;;;;;;4.70;1.30;;;;;;;20.58;68.66;100613.41;5035593;28;20447;-71
2023/07/15 02:07:56;;;;;;;5.93;1.67;;;;;;;20.58;69.75;100608.69;5053322;28;20513;-70
2023/07/15 02:10:24;;;;;;;6.37;1.70;;;;;;;20.54;69.73;100609.81;5053645;28;20822;-70
2023/07/15 02:12:50;;;;;;;6.70;1.70;;;;;;;20.49;69.62;100619.16;5049694;28;20806;-70
2023/07/15 02:15:19;;;;;;;5.90;1.83;;;;;;;20.47;70.47;100617.94;5052779;28;20493;-71
2023/07/15 02:17:45;;;;;;;6.00;1.50;;;;;;;20.47;70.86;100615.19;5053521;28;20557;-69
2023/07/15 02:20:13;;;;;;;5.40;2.00;;;;;;;20.45;71.36;100609.22;5052768;28;20470;-70
2023/07/15 02:22:39;;;;;;;5.57;1.90;;;;;;;20.39;72.36;100603.25;5052242;28;20461;-69
2023/07/15 02:25:07;;;;;;;5.80;2.03;;;;;;;20.38;72.34;100607.97;5052478;28;20952;-70
2023/07/15 02:27:33;;;;;;;11.13;2.00;;;;;;;20.35;72.58;100608.69;5051847;28;20555;-69
2023/07/15 02:30:00;;;;;;;5.47;1.63;;;;;;;20.32;73.12;100606.69;5053581;28;20549;-69
2023/07/15 02:32:39;;;;;;;6.03;1.80;;;;;;;20.27;73.13;100604.22;5053649;28;20480;-70
2023/07/15 02:35:09;;;;;;;5.40;1.50;;;;;;;20.21;72.48;100611.19;5051840;28;20864;-70
2023/07/15 02:37:38;;;;;;;5.57;1.77;;;;;;;20.17;73.76;100599.31;5048919;28;21060;-69
2023/07/15 02:40:06;;;;;;;5.37;1.60;;;;;;;20.12;74.27;100600.44;5053007;28;20462;-69
2023/07/15 02:42:33;;;;;;;5.63;1.90;;;;;;;20.07;74.82;100597.19;5052064;28;20450;-69
2023/07/15 02:45:03;;;;;;;6.17;2.07;;;;;;;20.03;73.24;100594.38;5052636;28;20473;-69
2023/07/15 02:47:29;;;;;;;6.30;2.20;;;;;;;19.97;70.60;100593.09;5053057;28;20486;-69
2023/07/15 02:49:58;;;;;;;6.50;1.90;;;;;;;19.94;70.56;100596.56;5052505;28;20865;-69
2023/07/15 02:52:25;;;;;;;6.60;2.13;;;;;;;19.91;70.36;100594.53;5050784;28;20549;-69
2023/07/15 02:54:52;;;;;;;5.73;1.70;;;;;;;19.85;72.06;100596.78;5052805;28;20466;-68
2023/07/15 02:57:18;;;;;;;5.13;1.67;;;;;;;19.85;73.61;100599.53;5053205;28;20925;-70
2023/07/15 02:59:45;;;;;;;7.27;1.77;;;;;;;19.82;74.04;100602.22;5053150;28;20545;-69
2023/07/15 03:02:12;;;;;;;6.73;1.83;;;;;;;19.80;74.11;100602.59;5051021;28;20469;-69
2023/07/15 03:04:38;;;;;;;5.43;1.77;;;;;;;19.78;74.74;100607.63;5052708;28;20446;-69
2023/07/15 03:07:07;;;;;;;6.20;1.93;;;;;;;19.77;75.57;100599.75;5051706;28;20517;-68
2023/07/15 03:09:34;;;;;;;6.80;2.37;;;;;;;19.73;76.20;100596.13;5053156;28;20528;-69
2023/07/15 03:12:00;;;;;;;6.00;1.87;;;;;;;19.75;76.79;100589.13;5050807;28;20464;-70
2023/07/15 03:14:27;;;;;;;5.50;2.00;;;;;;;19.73;76.43;100590.66;5052902;28;20481;-71
2023/07/15 03:16:53;;;;;;;5.63;2.00;;;;;;;19.69;76.24;100585.06;5052502;28;20518;-71
2023/07/15 03:19:20;;;;;;;6.83;1.73;;;;;;;19.69;76.60;100589.78;5052418;28;20568;-72
2023/07/15 03:21:47;;;;;;;5.53;1.97;;;;;;;19.62;76.66;100582.19;5042183;28;20462;-70
2023/07/15 03:24:15;;;;;;;6.80;2.60;;;;;;;19.62;76.36;100584.94;5056092;28;20465;-70
2023/07/15 03:26:42;;;;;;;5.13;1.80;;;;;;;19.62;76.49;100583.00;5056781;28;20893;-70
2023/07/15 03:29:09;;;;;;;7.63;2.50;;;;;;;19.63;75.79;100578.28;5053917;28;20963;-72
2023/07/15 03:31:35;;;;;;;5.80;1.77;;;;;;;19.65;76.66;100578.72;5055824;28;20458;-71
2023/07/15 03:34:02;;;;;;;5.00;1.60;;;;;;;19.65;75.95;100573.22;5056732;28;20442;-71
2023/07/15 03:36:29;;;;;;;6.00;2.23;;;;;;;19.67;76.05;100570.91;5054670;28;20573;-72
2023/07/15 03:38:56;;;;;;;7.13;2.40;;;;;;;19.64;76.14;100568.88;5056297;28;20947;-71
2023/07/15 03:41:23;;;;;;;5.10;1.37;;;;;;;19.70;76.27;100570.19;5056562;28;20858;-71
2023/07/15 03:43:50;;;;;;;6.00;1.97;;;;;;;19.75;76.12;100566.34;5053674;28;20472;-73
2023/07/15 03:46:17;;;;;;;7.90;2.00;;;;;;;19.78;78.38;100566.41;5055601;28;20591;-71
2023/07/15 03:48:43;;;;;;;6.33;2.07;;;;;;;19.75;82.26;100561.66;5056821;28;20458;-72
2023/07/15 03:51:10;;;;;;;8.80;2.30;;;;;;;19.75;87.23;100561.66;5083749;22;20918;-71
2023/07/15 03:53:37;;;;;;;5.30;2.07;;;;;;;19.60;88.67;100562.47;5073180;28;21043;-71
2023/07/15 03:56:04;;;;;;;5.70;2.00;;;;;;;19.40;90.03;100556.22;5076340;28;20476;-71
2023/07/15 03:58:32;;;;;;;6.23;2.37;;;;;;;19.22;89.72;100555.84;5076270;28;20449;-70
2023/07/15 04:00:58;;;;;;;5.70;2.20;;;;;;;19.20;91.38;100558.13;5082136;28;20539;-71
2023/07/15 04:03:25;;;;;;;6.43;2.40;;;;;;;19.07;92.58;100562.16;5079125;28;20450;-71
2023/07/15 04:05:52;;;;;;;6.03;2.37;;;;;;;19.05;94.00;100561.75;5076137;28;20536;-71
2023/07/15 04:08:18;;;;;;;6.20;2.40;;;;;;;18.97;94.89;100549.00;5075704;28;20524;-71
2023/07/15 04:10:46;;;;;;;7.10;2.70;;;;;;;18.87;96.39;100551.16;5077695;28;21028;-71
2023/07/15 04:13:13;;;;;;;7.83;2.83;;;;;;;18.81;96.65;100563.56;5075911;28;20453;-71
2023/07/15 04:15:41;;;;;;;6.73;2.70;;;;;;;18.75;96.62;100556.75;5075635;28;20997;-71
2023/07/15 04:18:07;;;;;;;7.60;3.17;;;;;;;18.74;96.67;100551.63;5075599;28;20440;-72
2023/07/15 04:20:34;;;;;;;6.37;2.40;;;;;;;18.76;96.68;100550.13;5076802;28;20974;-71
2023/07/15 04:23:01;;;;;;;7.10;2.37;;;;;;;18.73;96.36;100542.63;5075928;28;20445;-71
2023/07/15 04:25:27;;;;;;;6.83;2.70;;;;;;;18.81;95.64;100549.84;5075831;28;20888;-71
2023/07/15 04:27:54;;;;;;;7.07;2.83;;;;;;;18.79;93.61;100549.41;5077405;28;20444;-71
2023/07/15 04:30:21;;;;;;;7.10;2.80;;;;;;;18.85;92.42;100541.69;5074568;28;20600;-71
2023/07/15 04:32:49;;;;;;;9.53;2.87;;;;;;;18.98;93.09;100545.09;5075521;28;20480;-72
2023/07/15 04:35:16;;;;;;;6.23;2.60;;;;;;;19.05;92.62;100545.28;5076459;28;20555;-71
2023/07/15 04:37:43;;;;;;;8.33;2.70;;;;;;;19.10;92.24;100547.72;5075570;28;20498;-72
2023/07/15 04:40:11;;;;;;;6.17;2.63;;;;;;;19.14;90.40;100543.91;5075255;28;20536;-71
2023/07/15 04:42:38;;;;;;;5.60;2.20;;;;;;;19.19;91.18;100540.06;5076369;28;20483;-72
2023/07/15 04:45:06;;;;;;;7.80;2.60;;;;;;;19.27;88.94;100539.06;5075961;28;20536;-71
2023/07/15 04:47:34;;;;;;;8.07;3.10;;;;;;;19.31;89.40;100542.69;5075357;28;20433;-71
2023/07/15 04:50:03;;;;;;;7.60;2.43;;;;;;;19.37;88.59;100543.97;5072676;28;20472;-71
2023/07/15 04:52:29;;;;;;;7.27;2.87;;;;;;;19.41;88.04;100544.84;5073646;28;20542;-72
2023/07/15 04:54:56;;;;;;;5.93;2.43;;;;;;;19.46;87.68;100542.97;5075305;28;20530;-71
2023/07/15 04:57:22;;;;;;;7.97;3.10;;;;;;;19.50;87.44;100539.13;5075176;28;20859;-71
2023/07/15 04:59:50;;;;;;;9.37;2.50;;;;;;;19.56;85.45;100536.88;5076953;28;20820;-72
2023/07/15 05:02:17;;;;;;;5.87;2.40;;;;;;;19.60;87.15;100544.06;5079533;28;20512;-72
2023/07/15 05:04:43;;;;;;;6.93;1.97;;;;;;;19.64;85.50;100539.44;5090964;28;20457;-72
2023/07/15 05:07:11;;;;;;;6.80;2.60;;;;;;;19.76;83.61;100530.25;5074632;28;20448;-72
2023/07/15 05:09:38;;;;;;;6.20;2.50;;;;;;;19.83;84.83;100535.06;5074675;28;20473;-71
2023/07/15 05:12:06;;;;;;;5.63;1.93;;;;;;;19.85;80.99;100533.56;5076539;28;20481;-72
2023/07/15 05:14:33;;;;;;;7.37;2.57;;;;;;;19.96;82.25;100541.97;5073405;28;20835;-72
2023/07/15 05:17:00;;;;;;;6.83;2.40;;;;;;;20.02;83.52;100537.78;5074985;28;20495;-72
2023/07/15 05:19:26;;;;;;;7.33;2.90;;;;;;;20.06;83.79;100538.66;5073290;28;20954;-72
2023/07/15 05:21:53;;;;;;;6.20;2.00;;;;;;;20.12;83.18;100536.38;5077068;28;20595;-72
2023/07/15 05:24:21;;;;;;;5.80;2.40;;;;;;;20.21;81.00;100547.13;5074423;28;20445;-72
2023/07/15 05:26:47;;;;;;;7.43;2.57;;;;;;;20.32;78.68;100534.34;5074694;28;20456;-73
2023/07/15 05:29:14;;;;;;;6.90;2.20;;;;;;;20.49;78.16;100538.56;5073765;28;20818;-72
2023/07/15 05:31:41;;;;;;;6.87;2.53;;;;;;;20.55;77.76;100542.63;5076374;28;20511;-72
2023/07/15 05:34:08;;;;;;;6.00;2.00;;;;;;;20.63;78.13;100538.81;5074091;28;20466;-73
2023/07/15 05:36:34;;;;;;;8.90;2.40;;;;;;;20.68;79.52;100546.75;5074168;28;20485;-74
2023/07/15 05:39:01;;;;;;;6.73;2.27;;;;;;;20.69;78.05;100542.81;5077322;28;20946;-73
2023/07/15 05:41:29;;;;;;;6.80;2.33;;;;;;;20.74;77.87;100545.25;5073701;28;20502;-71
2023/07/15 05:43:56;;;;;;;5.80;2.33;;;;;;;20.80;77.07;100541.00;5074596;28;20434;-71
2023/07/15 05:46:23;;;;;;;6.60;2.23;;;;;;;20.92;75.19;100542.75;5073168;28;20437;-72
2023/07/15 05:48:49;;;;;;;5.80;1.87;;;;;;;21.07;74.88;100541.81;5075222;28;20493;-72
2023/07/15 05:51:16;;;;;;;6.20;2.30;;;;;;;21.14;73.39;100541.88;5081264;28;20566;-72
2023/07/15 05:53:43;;;;;;;6.57;2.80;;;;;;;21.21;74.13;100546.69;5094373;28;20509;-72
2023/07/15 05:56:10;;;;;;;6.57;2.27;;;;;;;21.28;73.96;100538.50;5086064;28;20543;-72
2023/07/15 05:58:38;;;;;;;6.20;2.37;;;;;;;21.37;71.50;100544.56;5073367;28;20472;-73
2023/07/15 06:01:05;;;;;;;7.20;2.33;;;;;;;21.51;68.44;100554.16;5072024;28;20534;-71
2023/07/15 06:03:31;;;;;;;6.00;1.67;;;;;;;21.65;68.06;100546.88;5075854;28;20463;-72
2023/07/15 06:06:01;;;;;;;6.13;2.00;;;;;;;21.78;69.77;100541.06;5073607;28;20854;-72
2023/07/15 06:08:28;;;;;;;6.13;1.53;;;;;;;21.86;69.02;100543.50;5073875;28;20430;-73
2023/07/15 06:10:55;;;;;;;5.60;2.10;;;;;;;21.94;69.15;100532.56;5072780;28;20624;-72
2023/07/15 06:13:21;;;;;;;5.60;1.97;;;;;;;22.02;68.66;100537.78;5078439;28;20544;-72
2023/07/15 06:15:50;;;;;;;5.93;2.10;;;;;;;22.10;68.33;100536.66;5073428;28;20445;-72
2023/07/15 06:18:16;;;;;;;6.17;1.93;;;;;;;22.15;69.28;100539.09;5073136;28;20443;-71
2023/07/15 06:20:45;;;;;;;6.30;1.93;;;;;;;22.28;64.94;100542.38;5073259;28;20464;-73
2023/07/15 06:23:11;;;;;;;6.63;1.90;;;;;;;22.39;66.43;100545.19;5073190;28;20499;-72
2023/07/15 06:25:38;;;;;;;7.87;2.53;;;;;;;22.45;67.79;100540.13;5073325;28;20493;-72
2023/07/15 06:28:05;;;;;;;5.10;1.70;;;;;;;22.49;67.06;100529.88;5073513;28;20437;-71
2023/07/15 06:30:32;;;;;;;10.03;2.20;;;;;;;22.51;65.33;100538.59;5079419;28;20451;-70
2023/07/15 06:33:00;;;;;;;6.30;2.10;;;;;;;22.60;65.63;100530.78;5072908;28;20476;-74
2023/07/15 06:35:27;;;;;;;5.70;2.03;;;;;;;22.72;63.71;100526.91;5072581;28;20544;-74
2023/07/15 06:37:53;;;;;;;5.50;1.93;;;;;;;22.82;63.36;100532.50;5072858;28;20476;-73
2023/07/15 06:40:20;;;;;;;5.23;1.60;;;;;;;22.93;63.34;100524.28;5074830;28;20560;-73
2023/07/15 06:42:47;;;;;;;6.10;1.80;;;;;;;23.02;64.17;100529.47;5073500;28;20492;-73
2023/07/15 06:45:14;;;;;;;7.33;2.07;;;;;;;23.11;62.83;100535.44;5073391;28;20444;-73
2023/07/15 06:47:41;;;;;;;7.97;1.70;;;;;;;23.23;62.65;100532.31;5076215;28;20543;-74
2023/07/15 06:50:10;;;;;;;13.83;2.30;;;;;;;23.32;63.00;100538.28;5073000;28;20455;-74
2023/07/15 06:52:36;;;;;;;5.03;1.83;;;;;;;23.35;60.48;100536.72;5072707;28;20997;-72
2023/07/15 06:55:03;;;;;;;5.20;1.73;;;;;;;23.42;61.29;100536.75;5072541;28;20469;-73
2023/07/15 06:57:30;;;;;;;5.90;1.60;;;;;;;23.49;59.48;100539.53;5074741;28;20491;-71
2023/07/15 06:59:56;;;;;;;5.70;1.87;;;;;;;23.55;61.03;100538.00;5072228;28;20457;-72
2023/07/15 07:02:23;;;;;;;5.47;1.50;;;;;;;23.65;60.23;100537.25;5053043;28;20462;-71
2023/07/15 07:04:50;;;;;;;6.40;2.23;;;;;;;23.76;56.34;100534.50;5070650;28;20468;-71
2023/07/15 07:07:22;;;;;;;5.03;1.50;;;;;;;23.86;58.63;100527.41;5073062;28;20441;-71
2023/07/15 07:09:48;;;;;;;8.73;2.53;;;;;;;23.99;59.42;100525.81;5073068;28;20429;-72
2023/07/15 07:12:15;;;;;;;5.20;1.60;;;;;;;24.15;56.86;100522.69;5076258;28;20848;-72
2023/07/15 07:14:42;;;;;;;5.67;1.60;;;;;;;24.25;58.03;100527.44;5071235;28;20463;-72
2023/07/15 07:17:08;;;;;;;5.93;2.03;;;;;;;24.40;56.81;100522.72;5072979;28;20567;-73
2023/07/15 07:19:35;;;;;;;5.77;1.73;;;;;;;24.41;58.29;100525.09;5072394;28;20453;-74
2023/07/15 07:22:02;;;;;;;5.60;2.07;;;;;;;24.55;56.80;100526.25;5072613;28;20512;-70
2023/07/15 07:24:30;;;;;;;5.33;1.63;;;;;;;24.59;56.96;100521.50;5072724;28;21041;-71
2023/07/15 07:26:57;;;;;;;5.50;1.77;;;;;;;24.61;57.33;100517.16;5072688;28;20476;-71
2023/07/15 07:29:24;;;;;;;5.10;1.87;;;;;;;24.67;57.14;100510.00;5076129;28;20540;-72
2023/07/15 07:31:52;;;;;;;5.83;1.90;;;;;;;24.78;55.16;100512.75;5071122;28;20470;-72
2023/07/15 07:34:19;;;;;;;5.57;2.00;;;;;;;24.86;56.39;100503.22;5071283;28;20453;-72
2023/07/15 07:36:46;;;;;;;5.07;1.60;;;;;;;24.98;56.46;100504.78;5072443;28;20485;-72
2023/07/15 07:39:13;;;;;;;7.57;2.13;;;;;;;25.04;56.73;100507.94;5072073;28;20461;-72
2023/07/15 07:41:41;;;;;;;6.37;2.00;;;;;;;25.12;55.44;100506.75;5072681;28;20465;-72
2023/07/15 07:44:09;;;;;;;7.03;2.47;;;;;;;25.22;55.42;100499.56;5074609;28;20454;-72
2023/07/15 07:46:35;;;;;;;5.77;1.80;;;;;;;25.30;55.92;100498.34;5075157;28;20461;-72
2023/07/15 07:49:02;;;;;;;5.90;1.97;;;;;;;25.38;57.23;100495.13;5070762;28;20453;-73
2023/07/15 07:51:29;;;;;;;5.50;1.80;;;;;;;25.52;54.93;100496.25;5064869;28;20483;-72
2023/07/15 07:53:55;;;;;;;5.67;1.80;;;;;;;25.61;53.93;100497.38;5072525;28;20946;-73
2023/07/15 07:56:23;;;;;;;5.00;1.63;;;;;;;25.75;54.07;100490.94;5073997;28;20553;-73
2023/07/15 07:58:54;;;;;;;5.37;1.97;;;;;;;25.84;53.83;100485.75;5072581;28;20502;-73
2023/07/15 08:01:22;;;;;;;4.83;1.37;;;;;;;26.04;52.58;100501.88;5071733;28;20493;-73
2023/07/15 08:03:48;;;;;;;5.27;1.63;;;;;;;26.10;53.30;100489.91;5075623;28;20468;-73
2023/07/15 08:06:15;;;;;;;5.17;1.67;;;;;;;26.21;53.50;100492.59;5072737;28;20494;-73
2023/07/15 08:08:42;;;;;;;5.67;1.43;;;;;;;26.24;54.01;100496.53;5075391;28;20488;-73
2023/07/15 08:11:08;;;;;;;6.60;2.00;;;;;;;26.29;53.56;100490.53;5075293;28;20477;-72
2023/07/15 08:13:35;;;;;;;5.43;2.03;;;;;;;26.33;54.36;100483.75;5073938;28;20461;-73
2023/07/15 08:16:03;;;;;;;5.63;1.83;;;;;;;26.39;54.26;100476.56;5075986;28;20469;-73
2023/07/15 08:18:30;;;;;;;5.00;1.60;;;;;;;26.42;53.87;100481.25;5074987;28;20485;-73
2023/07/15 08:20:57;;;;;;;6.43;2.03;;;;;;;26.55;53.56;100489.13;5078810;28;20481;-73
2023/07/15 08:23:23;;;;;;;5.57;1.90;;;;;;;26.68;52.23;100481.84;5074373;28;20958;-73
2023/07/15 08:25:50;;;;;;;5.10;1.60;;;;;;;26.85;51.53;100485.63;5079138;28;20546;-73
2023/07/15 08:28:17;;;;;;;5.17;1.60;;;;;;;27.06;49.89;100485.38;5073421;28;20800;-73
2023/07/15 08:30:43;;;;;;;5.40;1.83;;;;;;;27.26;49.76;100488.31;5076645;28;21046;-73
2023/07/15 08:33:11;;;;;;;5.20;1.60;;;;;;;27.33;50.88;100493.00;5080689;28;20468;-73
2023/07/15 08:35:38;;;;;;;7.03;2.53;;;;;;;27.50;48.72;100488.41;5075243;28;20465;-73
2023/07/15 08:38:04;;;;;;;5.70;1.87;;;;;;;27.60;48.78;100491.00;5078258;28;20489;-72
2023/07/15 08:40:31;;;;;;;6.27;2.00;;;;;;;27.66;50.21;100488.53;5085728;28;20532;-73
2023/07/15 08:42:58;;;;;;;5.60;1.90;;;;;;;27.73;49.69;100482.91;5075240;28;20532;-72
2023/07/15 08:45:26;;;;;;;5.23;1.87;;;;;;;27.79;49.60;100474.84;5077303;28;20468;-73
2023/07/15 08:47:54;;;;;;;5.20;1.67;;;;;;;27.82;50.19;100480.38;5075437;28;20863;-73
2023/07/15 08:50:23;;;;;;;9.17;1.80;;;;;;;27.95;48.82;100482.56;5075199;28;20452;-74
2023/07/15 08:52:49;;;;;;;4.97;1.50;;;;;;;28.12;48.21;100481.50;5077350;28;20556;-73
2023/07/15 08:55:18;;;;;;;5.20;1.40;;;;;;;28.17;48.21;100479.00;5078331;28;20548;-73
2023/07/15 08:57:45;;;;;;;5.87;1.77;;;;;;;28.20;49.87;100482.94;5074360;28;20481;-73
2023/07/15 09:00:14;;;;;;;7.00;2.00;;;;;;;28.20;49.38;100480.16;5073938;28;20465;-73
2023/07/15 09:02:40;;;;;;;5.90;1.63;;;;;;;28.22;50.67;100482.50;5074283;28;20999;-73
2023/07/15 09:05:09;;;;;;;7.47;1.90;;;;;;;28.28;50.10;100478.00;5077634;28;20552;-73
2023/07/15 09:07:45;;;;;;;6.90;1.70;;;;;;;28.43;47.91;100473.03;5074980;28;20433;-73
2023/07/15 09:10:14;;;;;;;5.20;1.60;;;;;;;28.71;48.14;100471.69;5074207;28;20540;-73
2023/07/15 09:12:44;;;;;;;5.93;2.20;;;;;;;28.88;46.48;100476.91;5077232;28;20476;-73
2023/07/15 09:15:12;;;;;;;6.63;2.00;;;;;;;29.01;47.11;100465.91;5074196;28;20974;-73
2023/07/15 09:17:39;;;;;;;5.37;1.43;;;;;;;29.12;47.25;100471.25;5073489;28;20822;-73
2023/07/15 09:20:17;;;;;;;6.17;2.40;;;;;;;29.01;45.48;100468.69;5074171;28;20522;-73
2023/07/15 09:22:45;;;;;;;5.90;2.10;;;;;;;29.15;45.41;100464.81;5074483;28;20512;-73
2023/07/15 09:25:12;;;;;;;6.73;1.97;;;;;;;29.27;46.17;100464.16;5074394;28;20507;-74
2023/07/15 09:27:42;;;;;;;5.50;2.13;;;;;;;29.34;46.35;100461.19;5076739;28;20480;-74
2023/07/15 09:30:10;;;;;;;6.00;2.20;;;;;;;29.42;46.14;100462.59;5077627;28;20461;-74
2023/07/15 09:32:37;;;;;;;5.17;1.87;;;;;;;29.56;45.71;100457.94;5072026;28;20477;-74
2023/07/15 09:35:05;;;;;;;4.90;1.60;;;;;;;29.73;44.61;100456.75;5076728;28;20518;-74
2023/07/15 09:37:32;;;;;;;5.50;1.90;;;;;;;29.77;46.55;100446.25;5054119;28;20482;-74
2023/07/15 09:40:02;;;;;;;5.80;2.17;;;;;;;29.76;46.79;100463.47;5054173;28;20978;-73
2023/07/15 09:42:29;;;;;;;5.40;2.00;;;;;;;29.71;46.79;100456.41;5067142;28;20525;-73
2023/07/15 09:44:56;;;;;;;5.63;2.07;;;;;;;29.78;45.67;100453.41;5076703;28;20992;-74
2023/07/15 09:47:24;;;;;;;6.00;1.87;;;;;;;29.69;47.25;100460.84;5076132;28;20461;-73
2023/07/15 09:49:51;;;;;;;7.07;1.83;;;;;;;29.73;46.40;100455.97;5074000;28;20890;-74
2023/07/15 09:52:18;;;;;;;6.17;1.93;;;;;;;29.77;47.38;100465.03;5075714;28;20576;-74
2023/07/15 09:54:45;;;;;;;5.17;2.00;;;;;;;29.94;45.32;100465.81;5077047;28;20493;-73
2023/07/15 09:57:15;;;;;;;5.30;1.90;;;;;;;30.13;43.83;100476.09;5073483;28;20924;-74
2023/07/15 09:59:46;;;;;;;5.60;1.93;;;;;;;30.33;44.43;100476.81;5072384;28;20441;-74
2023/07/15 10:02:26;;;;;;;5.83;1.90;;;;;;;30.46;43.86;100473.25;5071701;28;20530;-73
2023/07/15 10:05:00;;;;;;;13.83;2.97;;;;;;;30.54;45.65;100474.66;5072495;28;21004;-74
2023/07/15 10:07:27;;;;;;;5.50;2.10;;;;;;;30.62;43.82;100479.59;5076530;28;20526;-74
2023/07/15 10:09:54;;;;;;;5.30;1.83;;;;;;;30.80;42.29;100484.72;5066450;28;21035;-73
2023/07/15 10:12:22;;;;;;;4.90;1.77;;;;;;;30.93;42.53;100476.38;5072393;28;20611;-73
2023/07/15 10:14:49;;;;;;;5.87;1.77;;;;;;;31.04;42.51;100476.84;5072353;28;20551;-73
2023/07/15 10:17:16;;;;;;;7.23;2.10;;;;;;;31.14;42.65;100478.53;5076478;28;20516;-72
2023/07/15 10:19:47;;;;;;;10.17;1.80;;;;;;;31.16;42.11;100480.88;5075750;28;20453;-75
2023/07/15 10:22:14;;;;;;;5.20;1.93;;;;;;;31.33;39.50;100479.59;5073553;28;20548;-75
2023/07/15 10:24:41;;;;;;;6.50;1.57;;;;;;;31.43;41.28;100486.09;5073364;28;20480;-73
2023/07/15 10:27:10;;;;;;;4.83;1.40;;;;;;;31.46;39.79;100493.59;5074786;28;20481;-72
2023/07/15 10:29:39;;;;;;;5.13;1.47;;;;;;;31.54;41.44;100488.56;5072614;28;20880;-73
2023/07/15 10:32:10;;;;;;;4.50;1.30;;;;;;;31.59;41.26;100486.00;5072130;28;20564;-73
2023/07/15 10:34:37;;;;;;;5.50;1.70;;;;;;;31.59;43.38;100483.19;5081690;28;20456;-72
2023/07/15 10:37:09;;;;;;;4.60;1.30;;;;;;;31.63;41.53;100480.28;5076033;28;20457;-72
2023/07/15 10:39:37;;;;;;;5.20;1.40;;;;;;;31.70;40.54;100477.25;5071530;28;20529;-72
2023/07/15 10:42:11;;;;;;;5.07;1.73;;;;;;;31.82;38.54;100481.28;5067014;28;20920;-73
2023/07/15 10:44:44;;;;;;;5.03;1.30;;;;;;;31.73;38.34;100481.16;5053272;28;20449;-73
2023/07/15 10:47:12;;;;;;;5.20;1.57;;;;;;;31.88;38.78;100483.09;5069387;28;20452;-73
2023/07/15 10:49:39;;;;;;;5.60;1.67;;;;;;;32.06;40.37;100490.13;5073212;28;20528;-73
2023/07/15 10:52:07;;;;;;;5.60;1.60;;;;;;;32.17;40.94;100487.72;5065171;28;21012;-73
2023/07/15 10:54:39;;;;;;;4.50;1.10;;;;;;;32.42;35.24;100500.94;5053122;28;20442;-74
2023/07/15 10:57:10;;;;;;;5.20;1.50;;;;;;;32.53;35.44;100492.13;5060200;28;20444;-75
2023/07/15 10:59:39;;;;;;;5.03;1.23;;;;;;;32.58;35.94;100491.53;5071186;28;20541;-73
2023/07/15 11:02:07;;;;;;;4.60;1.13;;;;;;;32.64;36.01;100490.53;5075043;28;20485;-73
2023/07/15 11:04:35;;;;;;;4.80;1.47;;;;;;;32.74;36.25;100487.78;5069916;28;20497;-74
2023/07/15 11:07:03;;;;;;;6.47;1.40;;;;;;;32.92;34.76;100484.34;5076476;28;20465;-73
2023/07/15 11:09:30;;;;;;;4.50;1.30;;;;;;;32.96;36.54;100482.19;5057102;28;20438;-74
2023/07/15 11:11:57;;;;;;;4.80;1.33;;;;;;;33.05;35.27;100485.84;5056506;28;20473;-73
2023/07/15 11:14:25;;;;;;;4.40;1.33;;;;;;;33.17;34.23;100492.63;5072589;28;20527;-73
2023/07/15 11:16:53;;;;;;;4.50;1.00;;;;;;;33.24;35.50;100485.94;5072958;28;20520;-73
2023/07/15 11:19:21;;;;;;;4.10;0.90;;;;;;;33.30;35.35;100481.28;5072775;28;20845;-73
2023/07/15 11:21:48;;;;;;;6.30;1.33;;;;;;;33.47;33.42;100487.47;5060275;28;20524;-73
2023/07/15 11:24:15;;;;;;;10.23;1.40;;;;;;;33.68;33.25;100488.66;5063439;28;20493;-73
2023/07/15 11:26:43;;;;;;;5.23;1.30;;;;;;;34.19;33.02;100497.38;5073630;28;20465;-76
2023/07/15 11:29:17;;;;;;;5.10;1.30;;;;;;;34.58;31.99;100489.31;5076231;28;20468;-74